sensor_id;sensor_type;location;lat;lon;timestamp;P1;durP1;ratioP1;P2;durP2;ratioP2
5085;SDS011;4715;51.660;7.082;2023-03-09T00:00:33;22.90;;;14.57;;
5085;SDS011;4715;51.660;7.082;2023-03-09T00:02:55;21.70;;;14.17;;
5085;SDS011;4715;51.660;7.082;2023-03-09T00:05:17;22.57;;;13.40;;
5085;SDS011;4715;51.660;7.082;2023-03-09T00:07:40;21.77;;;13.43;;
5085;SDS011;4715;51.660;7.082;2023-03-09T00:10:02;25.20;;;13.40;;
5085;SDS011;4715;51.660;7.082;2023-03-09T00:12:26;19.00;;;12.30;;
5085;SDS011;4715;51.660;7.082;2023-03-09T00:14:51;17.73;;;11.80;;
5085;SDS011;4715;51.660;7.082;2023-03-09T00:17:15;19.60;;;11.60;;
5085;SDS011;4715;51.660;7.082;2023-03-09T00:19:36;21.10;;;12.47;;
5085;SDS011;4715;51.660;7.082;2023-03-09T00:21:58;17.77;;;11.93;;
5085;SDS011;4715;51.660;7.082;2023-03-09T00:24:21;18.50;;;11.67;;
5085;SDS011;4715;51.660;7.082;2023-03-09T00:26:48;19.30;;;11.63;;
5085;SDS011;4715;51.660;7.082;2023-03-09T00:29:12;17.90;;;10.53;;
5085;SDS011;4715;51.660;7.082;2023-03-09T00:31:35;14.87;;;11.03;;
5085;SDS011;4715;51.660;7.082;2023-03-09T00:33:57;12.60;;;9.70;;
5085;SDS011;4715;51.660;7.082;2023-03-09T00:36:19;14.43;;;9.77;;
5085;SDS011;4715;51.660;7.082;2023-03-09T00:38:42;17.80;;;11.00;;
5085;SDS011;4715;51.660;7.082;2023-03-09T00:41:05;14.50;;;9.23;;
5085;SDS011;4715;51.660;7.082;2023-03-09T00:43:27;15.27;;;9.97;;
5085;SDS011;4715;51.660;7.082;2023-03-09T00:45:50;12.63;;;9.07;;
5085;SDS011;4715;51.660;7.082;2023-03-09T00:48:12;15.00;;;10.00;;
5085;SDS011;4715;51.660;7.082;2023-03-09T00:50:34;15.10;;;10.13;;
5085;SDS011;4715;51.660;7.082;2023-03-09T00:52:57;13.77;;;9.90;;
5085;SDS011;4715;51.660;7.082;2023-03-09T00:55:19;14.87;;;10.07;;
5085;SDS011;4715;51.660;7.082;2023-03-09T00:57:42;17.63;;;11.83;;
5085;SDS011;4715;51.660;7.082;2023-03-09T01:00:05;18.50;;;12.60;;
5085;SDS011;4715;51.660;7.082;2023-03-09T01:02:32;18.20;;;12.00;;
5085;SDS011;4715;51.660;7.082;2023-03-09T01:04:54;24.00;;;14.70;;
5085;SDS011;4715;51.660;7.082;2023-03-09T01:07:16;17.33;;;11.27;;
5085;SDS011;4715;51.660;7.082;2023-03-09T01:09:38;20.27;;;12.87;;
5085;SDS011;4715;51.660;7.082;2023-03-09T01:12:02;18.30;;;11.90;;
5085;SDS011;4715;51.660;7.082;2023-03-09T01:14:26;17.40;;;12.47;;
5085;SDS011;4715;51.660;7.082;2023-03-09T01:16:50;24.60;;;14.17;;
5085;SDS011;4715;51.660;7.082;2023-03-09T01:19:14;20.40;;;13.70;;
5085;SDS011;4715;51.660;7.082;2023-03-09T01:21:36;22.97;;;13.00;;
5085;SDS011;4715;51.660;7.082;2023-03-09T01:23:59;20.27;;;13.27;;
5085;SDS011;4715;51.660;7.082;2023-03-09T01:26:21;17.63;;;12.40;;
5085;SDS011;4715;51.660;7.082;2023-03-09T01:28:43;23.60;;;14.10;;
5085;SDS011;4715;51.660;7.082;2023-03-09T01:31:07;20.73;;;13.50;;
5085;SDS011;4715;51.660;7.082;2023-03-09T01:33:30;21.13;;;12.73;;
5085;SDS011;4715;51.660;7.082;2023-03-09T01:35:54;28.70;;;16.50;;
5085;SDS011;4715;51.660;7.082;2023-03-09T01:38:16;23.40;;;14.00;;
5085;SDS011;4715;51.660;7.082;2023-03-09T01:40:43;28.83;;;16.63;;
5085;SDS011;4715;51.660;7.082;2023-03-09T01:43:25;24.40;;;15.70;;
5085;SDS011;4715;51.660;7.082;2023-03-09T01:48:58;24.27;;;14.20;;
5085;SDS011;4715;51.660;7.082;2023-03-09T01:51:28;25.77;;;15.53;;
5085;SDS011;4715;51.660;7.082;2023-03-09T01:53:53;25.57;;;14.73;;
5085;SDS011;4715;51.660;7.082;2023-03-09T01:56:17;23.83;;;14.97;;
5085;SDS011;4715;51.660;7.082;2023-03-09T01:58:48;24.47;;;14.70;;
5085;SDS011;4715;51.660;7.082;2023-03-09T02:01:13;21.73;;;13.47;;
5085;SDS011;4715;51.660;7.082;2023-03-09T02:03:35;31.30;;;16.40;;
5085;SDS011;4715;51.660;7.082;2023-03-09T02:06:00;28.13;;;15.23;;
5085;SDS011;4715;51.660;7.082;2023-03-09T02:08:29;26.57;;;15.30;;
5085;SDS011;4715;51.660;7.082;2023-03-09T02:10:56;21.83;;;14.77;;
5085;SDS011;4715;51.660;7.082;2023-03-09T02:13:24;25.93;;;15.53;;
5085;SDS011;4715;51.660;7.082;2023-03-09T02:15:50;28.00;;;14.03;;
5085;SDS011;4715;51.660;7.082;2023-03-09T02:18:12;22.60;;;14.20;;
5085;SDS011;4715;51.660;7.082;2023-03-09T02:20:37;21.57;;;13.00;;
5085;SDS011;4715;51.660;7.082;2023-03-09T02:23:05;24.03;;;15.70;;
5085;SDS011;4715;51.660;7.082;2023-03-09T02:25:40;23.50;;;14.37;;
5085;SDS011;4715;51.660;7.082;2023-03-09T02:28:08;22.60;;;13.50;;
5085;SDS011;4715;51.660;7.082;2023-03-09T02:30:32;22.67;;;13.37;;
5085;SDS011;4715;51.660;7.082;2023-03-09T02:33:04;21.50;;;11.67;;
5085;SDS011;4715;51.660;7.082;2023-03-09T02:35:27;24.57;;;13.63;;
5085;SDS011;4715;51.660;7.082;2023-03-09T02:37:50;24.80;;;15.30;;
5085;SDS011;4715;51.660;7.082;2023-03-09T02:40:14;27.53;;;16.27;;
5085;SDS011;4715;51.660;7.082;2023-03-09T02:42:43;29.10;;;15.47;;
5085;SDS011;4715;51.660;7.082;2023-03-09T02:45:11;25.50;;;14.77;;
5085;SDS011;4715;51.660;7.082;2023-03-09T02:47:36;21.70;;;13.27;;
5085;SDS011;4715;51.660;7.082;2023-03-09T02:49:59;25.10;;;14.00;;
5085;SDS011;4715;51.660;7.082;2023-03-09T02:52:22;22.30;;;13.00;;
5085;SDS011;4715;51.660;7.082;2023-03-09T02:54:44;22.47;;;12.97;;
5085;SDS011;4715;51.660;7.082;2023-03-09T02:57:06;20.50;;;11.90;;
5085;SDS011;4715;51.660;7.082;2023-03-09T02:59:30;21.33;;;13.17;;
5085;SDS011;4715;51.660;7.082;2023-03-09T03:01:56;26.23;;;14.20;;
5085;SDS011;4715;51.660;7.082;2023-03-09T03:04:18;18.73;;;11.50;;
5085;SDS011;4715;51.660;7.082;2023-03-09T03:06:39;23.20;;;13.40;;
5085;SDS011;4715;51.660;7.082;2023-03-09T03:09:01;21.03;;;12.77;;
5085;SDS011;4715;51.660;7.082;2023-03-09T03:11:23;24.33;;;14.30;;
5085;SDS011;4715;51.660;7.082;2023-03-09T03:13:46;26.40;;;15.53;;
5085;SDS011;4715;51.660;7.082;2023-03-09T03:16:08;28.93;;;14.80;;
5085;SDS011;4715;51.660;7.082;2023-03-09T03:18:32;27.93;;;15.50;;
5085;SDS011;4715;51.660;7.082;2023-03-09T03:20:56;28.53;;;16.40;;
5085;SDS011;4715;51.660;7.082;2023-03-09T03:23:18;23.93;;;12.83;;
5085;SDS011;4715;51.660;7.082;2023-03-09T03:25:40;28.40;;;15.10;;
5085;SDS011;4715;51.660;7.082;2023-03-09T03:28:04;27.77;;;14.77;;
5085;SDS011;4715;51.660;7.082;2023-03-09T03:30:27;21.53;;;12.67;;
5085;SDS011;4715;51.660;7.082;2023-03-09T03:32:49;25.33;;;13.80;;
5085;SDS011;4715;51.660;7.082;2023-03-09T03:35:15;24.17;;;13.87;;
5085;SDS011;4715;51.660;7.082;2023-03-09T03:37:42;25.23;;;14.40;;
5085;SDS011;4715;51.660;7.082;2023-03-09T03:40:05;24.27;;;12.80;;
5085;SDS011;4715;51.660;7.082;2023-03-09T03:42:33;20.87;;;12.20;;
5085;SDS011;4715;51.660;7.082;2023-03-09T03:45:01;23.83;;;12.90;;
5085;SDS011;4715;51.660;7.082;2023-03-09T03:47:24;19.40;;;12.00;;
5085;SDS011;4715;51.660;7.082;2023-03-09T03:49:46;22.00;;;13.17;;
5085;SDS011;4715;51.660;7.082;2023-03-09T03:52:11;21.43;;;12.70;;
5085;SDS011;4715;51.660;7.082;2023-03-09T03:54:35;21.80;;;12.83;;
5085;SDS011;4715;51.660;7.082;2023-03-09T03:56:57;19.30;;;10.90;;
5085;SDS011;4715;51.660;7.082;2023-03-09T03:59:19;20.43;;;11.13;;
5085;SDS011;4715;51.660;7.082;2023-03-09T04:01:42;22.40;;;12.00;;
5085;SDS011;4715;51.660;7.082;2023-03-09T04:04:04;16.73;;;11.13;;
5085;SDS011;4715;51.660;7.082;2023-03-09T04:06:27;18.97;;;11.47;;
5085;SDS011;4715;51.660;7.082;2023-03-09T04:08:53;19.37;;;11.20;;
5085;SDS011;4715;51.660;7.082;2023-03-09T04:11:17;20.20;;;11.67;;
5085;SDS011;4715;51.660;7.082;2023-03-09T04:13:40;23.67;;;13.70;;
5085;SDS011;4715;51.660;7.082;2023-03-09T04:16:03;29.70;;;14.30;;
5085;SDS011;4715;51.660;7.082;2023-03-09T04:18:27;19.53;;;12.20;;
5085;SDS011;4715;51.660;7.082;2023-03-09T04:20:51;26.30;;;14.50;;
5085;SDS011;4715;51.660;7.082;2023-03-09T04:23:15;24.30;;;13.77;;
5085;SDS011;4715;51.660;7.082;2023-03-09T04:25:39;22.80;;;13.00;;
5085;SDS011;4715;51.660;7.082;2023-03-09T04:28:01;24.30;;;12.70;;
5085;SDS011;4715;51.660;7.082;2023-03-09T04:30:23;19.40;;;10.97;;
5085;SDS011;4715;51.660;7.082;2023-03-09T04:32:48;24.00;;;12.67;;
5085;SDS011;4715;51.660;7.082;2023-03-09T04:35:10;24.13;;;12.50;;
5085;SDS011;4715;51.660;7.082;2023-03-09T04:37:32;23.13;;;11.43;;
5085;SDS011;4715;51.660;7.082;2023-03-09T04:39:59;18.67;;;10.70;;
5085;SDS011;4715;51.660;7.082;2023-03-09T04:42:22;23.10;;;12.10;;
5085;SDS011;4715;51.660;7.082;2023-03-09T04:44:44;20.30;;;11.20;;
5085;SDS011;4715;51.660;7.082;2023-03-09T04:47:06;22.10;;;12.73;;
5085;SDS011;4715;51.660;7.082;2023-03-09T04:49:29;21.43;;;12.60;;
5085;SDS011;4715;51.660;7.082;2023-03-09T04:51:51;20.00;;;11.70;;
5085;SDS011;4715;51.660;7.082;2023-03-09T04:54:13;23.33;;;12.20;;
5085;SDS011;4715;51.660;7.082;2023-03-09T04:56:35;20.97;;;11.90;;
5085;SDS011;4715;51.660;7.082;2023-03-09T04:58:58;16.53;;;9.73;;
5085;SDS011;4715;51.660;7.082;2023-03-09T05:01:20;21.03;;;11.97;;
5085;SDS011;4715;51.660;7.082;2023-03-09T05:03:42;20.80;;;10.20;;
5085;SDS011;4715;51.660;7.082;2023-03-09T05:06:04;20.93;;;12.13;;
5085;SDS011;4715;51.660;7.082;2023-03-09T05:08:27;23.13;;;11.67;;
5085;SDS011;4715;51.660;7.082;2023-03-09T05:10:48;19.70;;;11.00;;
5085;SDS011;4715;51.660;7.082;2023-03-09T05:13:10;19.57;;;12.30;;
5085;SDS011;4715;51.660;7.082;2023-03-09T05:15:36;22.60;;;12.87;;
5085;SDS011;4715;51.660;7.082;2023-03-09T05:17:59;18.80;;;10.60;;
5085;SDS011;4715;51.660;7.082;2023-03-09T05:20:21;19.03;;;11.10;;
5085;SDS011;4715;51.660;7.082;2023-03-09T05:22:43;16.90;;;9.90;;
5085;SDS011;4715;51.660;7.082;2023-03-09T05:25:05;22.93;;;11.83;;
5085;SDS011;4715;51.660;7.082;2023-03-09T05:27:27;22.30;;;13.10;;
5085;SDS011;4715;51.660;7.082;2023-03-09T05:29:50;21.43;;;12.17;;
5085;SDS011;4715;51.660;7.082;2023-03-09T05:32:14;23.17;;;12.57;;
5085;SDS011;4715;51.660;7.082;2023-03-09T05:34:36;28.53;;;12.70;;
5085;SDS011;4715;51.660;7.082;2023-03-09T05:36:57;21.23;;;12.73;;
5085;SDS011;4715;51.660;7.082;2023-03-09T05:39:19;21.10;;;11.90;;
5085;SDS011;4715;51.660;7.082;2023-03-09T05:41:41;18.27;;;10.30;;
5085;SDS011;4715;51.660;7.082;2023-03-09T05:44:03;17.43;;;10.23;;
5085;SDS011;4715;51.660;7.082;2023-03-09T05:46:26;15.60;;;9.87;;
5085;SDS011;4715;51.660;7.082;2023-03-09T05:48:52;16.20;;;9.97;;
5085;SDS011;4715;51.660;7.082;2023-03-09T05:51:14;21.57;;;10.90;;
5085;SDS011;4715;51.660;7.082;2023-03-09T05:53:36;22.33;;;11.87;;
5085;SDS011;4715;51.660;7.082;2023-03-09T05:55:58;22.87;;;13.90;;
5085;SDS011;4715;51.660;7.082;2023-03-09T05:58:20;26.00;;;13.20;;
5085;SDS011;4715;51.660;7.082;2023-03-09T06:00:42;22.17;;;12.70;;
5085;SDS011;4715;51.660;7.082;2023-03-09T06:03:04;22.97;;;13.67;;
5085;SDS011;4715;51.660;7.082;2023-03-09T06:05:27;28.07;;;15.13;;
5085;SDS011;4715;51.660;7.082;2023-03-09T06:07:49;20.27;;;12.00;;
5085;SDS011;4715;51.660;7.082;2023-03-09T06:10:12;21.00;;;11.40;;
5085;SDS011;4715;51.660;7.082;2023-03-09T06:12:47;23.33;;;12.20;;
5085;SDS011;4715;51.660;7.082;2023-03-09T06:15:09;18.40;;;10.90;;
5085;SDS011;4715;51.660;7.082;2023-03-09T06:17:33;19.80;;;10.17;;
5085;SDS011;4715;51.660;7.082;2023-03-09T06:19:55;16.27;;;9.97;;
5085;SDS011;4715;51.660;7.082;2023-03-09T06:22:18;17.53;;;9.43;;
5085;SDS011;4715;51.660;7.082;2023-03-09T06:24:40;15.37;;;9.37;;
5085;SDS011;4715;51.660;7.082;2023-03-09T06:27:03;20.00;;;12.50;;
5085;SDS011;4715;51.660;7.082;2023-03-09T06:29:27;18.33;;;9.60;;
5085;SDS011;4715;51.660;7.082;2023-03-09T06:31:50;17.97;;;11.30;;
5085;SDS011;4715;51.660;7.082;2023-03-09T06:34:12;19.40;;;11.60;;
5085;SDS011;4715;51.660;7.082;2023-03-09T06:36:34;20.47;;;11.63;;
5085;SDS011;4715;51.660;7.082;2023-03-09T06:38:57;22.77;;;12.50;;
5085;SDS011;4715;51.660;7.082;2023-03-09T06:41:19;22.10;;;11.90;;
5085;SDS011;4715;51.660;7.082;2023-03-09T06:43:49;20.60;;;12.27;;
5085;SDS011;4715;51.660;7.082;2023-03-09T06:46:11;21.67;;;12.60;;
5085;SDS011;4715;51.660;7.082;2023-03-09T06:48:33;23.60;;;13.23;;
5085;SDS011;4715;51.660;7.082;2023-03-09T06:50:55;22.97;;;12.27;;
5085;SDS011;4715;51.660;7.082;2023-03-09T06:53:17;21.70;;;12.90;;
5085;SDS011;4715;51.660;7.082;2023-03-09T06:55:47;17.43;;;10.70;;
5085;SDS011;4715;51.660;7.082;2023-03-09T06:58:09;23.00;;;12.50;;
5085;SDS011;4715;51.660;7.082;2023-03-09T07:00:32;20.77;;;12.60;;
5085;SDS011;4715;51.660;7.082;2023-03-09T07:03:00;26.83;;;14.33;;
5085;SDS011;4715;51.660;7.082;2023-03-09T07:05:22;26.27;;;13.30;;
5085;SDS011;4715;51.660;7.082;2023-03-09T07:07:45;23.57;;;12.80;;
5085;SDS011;4715;51.660;7.082;2023-03-09T07:10:08;24.40;;;13.57;;
5085;SDS011;4715;51.660;7.082;2023-03-09T07:12:33;24.10;;;12.07;;
5085;SDS011;4715;51.660;7.082;2023-03-09T07:14:55;23.00;;;12.80;;
5085;SDS011;4715;51.660;7.082;2023-03-09T07:17:16;20.40;;;11.30;;
5085;SDS011;4715;51.660;7.082;2023-03-09T07:19:41;21.10;;;12.33;;
5085;SDS011;4715;51.660;7.082;2023-03-09T07:22:06;26.73;;;13.60;;
5085;SDS011;4715;51.660;7.082;2023-03-09T07:24:30;22.13;;;12.43;;
5085;SDS011;4715;51.660;7.082;2023-03-09T07:26:55;21.80;;;12.87;;
5085;SDS011;4715;51.660;7.082;2023-03-09T07:29:19;25.83;;;14.77;;
5085;SDS011;4715;51.660;7.082;2023-03-09T07:31:42;22.77;;;13.10;;
5085;SDS011;4715;51.660;7.082;2023-03-09T07:34:04;25.97;;;15.13;;
5085;SDS011;4715;51.660;7.082;2023-03-09T07:36:26;21.47;;;12.10;;
5085;SDS011;4715;51.660;7.082;2023-03-09T07:38:48;22.47;;;13.27;;
5085;SDS011;4715;51.660;7.082;2023-03-09T07:41:10;26.60;;;14.10;;
5085;SDS011;4715;51.660;7.082;2023-03-09T07:43:32;29.47;;;15.57;;
5085;SDS011;4715;51.660;7.082;2023-03-09T07:45:57;24.13;;;14.03;;
5085;SDS011;4715;51.660;7.082;2023-03-09T07:48:19;24.33;;;13.70;;
5085;SDS011;4715;51.660;7.082;2023-03-09T07:50:40;27.70;;;16.53;;
5085;SDS011;4715;51.660;7.082;2023-03-09T07:53:03;23.13;;;13.00;;
5085;SDS011;4715;51.660;7.082;2023-03-09T07:55:25;21.00;;;12.97;;
5085;SDS011;4715;51.660;7.082;2023-03-09T07:57:47;25.10;;;13.30;;
5085;SDS011;4715;51.660;7.082;2023-03-09T08:00:11;20.67;;;12.60;;
5085;SDS011;4715;51.660;7.082;2023-03-09T08:02:41;28.17;;;13.77;;
5085;SDS011;4715;51.660;7.082;2023-03-09T08:05:04;23.10;;;12.80;;
5085;SDS011;4715;51.660;7.082;2023-03-09T08:07:27;23.53;;;12.77;;
5085;SDS011;4715;51.660;7.082;2023-03-09T08:09:50;20.00;;;12.60;;
5085;SDS011;4715;51.660;7.082;2023-03-09T08:12:12;21.70;;;13.57;;
5085;SDS011;4715;51.660;7.082;2023-03-09T08:14:34;24.00;;;12.70;;
5085;SDS011;4715;51.660;7.082;2023-03-09T08:16:57;22.07;;;12.73;;
5085;SDS011;4715;51.660;7.082;2023-03-09T08:19:20;23.20;;;12.83;;
5085;SDS011;4715;51.660;7.082;2023-03-09T08:21:42;17.67;;;11.40;;
5085;SDS011;4715;51.660;7.082;2023-03-09T08:24:04;17.93;;;11.33;;
5085;SDS011;4715;51.660;7.082;2023-03-09T08:26:26;18.40;;;10.30;;
5085;SDS011;4715;51.660;7.082;2023-03-09T08:28:48;19.90;;;11.03;;
5085;SDS011;4715;51.660;7.082;2023-03-09T08:31:11;19.57;;;12.13;;
5085;SDS011;4715;51.660;7.082;2023-03-09T08:33:34;19.43;;;11.13;;
5085;SDS011;4715;51.660;7.082;2023-03-09T08:35:57;21.83;;;11.87;;
5085;SDS011;4715;51.660;7.082;2023-03-09T08:38:20;25.70;;;13.37;;
5085;SDS011;4715;51.660;7.082;2023-03-09T08:40:45;24.07;;;12.90;;
5085;SDS011;4715;51.660;7.082;2023-03-09T08:43:07;20.90;;;12.10;;
5085;SDS011;4715;51.660;7.082;2023-03-09T08:45:29;22.10;;;13.23;;
5085;SDS011;4715;51.660;7.082;2023-03-09T08:47:51;21.53;;;10.97;;
5085;SDS011;4715;51.660;7.082;2023-03-09T08:50:13;21.40;;;11.63;;
5085;SDS011;4715;51.660;7.082;2023-03-09T08:52:36;20.87;;;11.40;;
5085;SDS011;4715;51.660;7.082;2023-03-09T08:55:00;23.90;;;12.43;;
5085;SDS011;4715;51.660;7.082;2023-03-09T08:57:22;19.53;;;11.60;;
5085;SDS011;4715;51.660;7.082;2023-03-09T08:59:44;22.20;;;11.33;;
5085;SDS011;4715;51.660;7.082;2023-03-09T09:02:08;17.03;;;10.30;;
5085;SDS011;4715;51.660;7.082;2023-03-09T09:04:34;19.73;;;11.77;;
5085;SDS011;4715;51.660;7.082;2023-03-09T09:06:56;17.23;;;10.60;;
5085;SDS011;4715;51.660;7.082;2023-03-09T09:09:21;16.63;;;10.00;;
5085;SDS011;4715;51.660;7.082;2023-03-09T09:11:43;20.57;;;11.70;;
5085;SDS011;4715;51.660;7.082;2023-03-09T09:14:05;17.67;;;10.70;;
5085;SDS011;4715;51.660;7.082;2023-03-09T09:16:27;18.53;;;10.80;;
5085;SDS011;4715;51.660;7.082;2023-03-09T09:18:50;18.87;;;10.90;;
5085;SDS011;4715;51.660;7.082;2023-03-09T09:21:12;18.70;;;11.17;;
5085;SDS011;4715;51.660;7.082;2023-03-09T09:23:37;13.97;;;8.97;;
5085;SDS011;4715;51.660;7.082;2023-03-09T09:26:01;17.60;;;9.90;;
5085;SDS011;4715;51.660;7.082;2023-03-09T09:28:23;16.10;;;8.97;;
5085;SDS011;4715;51.660;7.082;2023-03-09T09:30:46;12.70;;;8.83;;
5085;SDS011;4715;51.660;7.082;2023-03-09T09:33:14;17.67;;;9.83;;
5085;SDS011;4715;51.660;7.082;2023-03-09T09:35:36;16.70;;;10.07;;
5085;SDS011;4715;51.660;7.082;2023-03-09T09:37:58;16.00;;;9.40;;
5085;SDS011;4715;51.660;7.082;2023-03-09T09:40:22;17.57;;;9.50;;
5085;SDS011;4715;51.660;7.082;2023-03-09T09:42:46;16.13;;;9.80;;
5085;SDS011;4715;51.660;7.082;2023-03-09T09:45:14;26.70;;;12.77;;
5085;SDS011;4715;51.660;7.082;2023-03-09T09:47:47;32.53;;;15.00;;
5085;SDS011;4715;51.660;7.082;2023-03-09T09:50:10;29.83;;;16.37;;
5085;SDS011;4715;51.660;7.082;2023-03-09T09:52:37;27.97;;;15.30;;
5085;SDS011;4715;51.660;7.082;2023-03-09T09:55:11;34.10;;;17.30;;
5085;SDS011;4715;51.660;7.082;2023-03-09T09:57:38;30.10;;;16.13;;
5085;SDS011;4715;51.660;7.082;2023-03-09T10:00:05;32.47;;;16.33;;
5085;SDS011;4715;51.660;7.082;2023-03-09T10:02:35;30.43;;;15.90;;
5085;SDS011;4715;51.660;7.082;2023-03-09T10:05:04;30.17;;;16.00;;
5085;SDS011;4715;51.660;7.082;2023-03-09T10:07:33;23.90;;;13.37;;
5085;SDS011;4715;51.660;7.082;2023-03-09T10:09:59;33.20;;;16.00;;
5085;SDS011;4715;51.660;7.082;2023-03-09T10:12:25;37.13;;;18.80;;
5085;SDS011;4715;51.660;7.082;2023-03-09T10:14:50;35.97;;;19.10;;
5085;SDS011;4715;51.660;7.082;2023-03-09T10:17:18;28.50;;;15.07;;
5085;SDS011;4715;51.660;7.082;2023-03-09T10:19:44;28.57;;;16.00;;
5085;SDS011;4715;51.660;7.082;2023-03-09T10:22:15;28.90;;;16.03;;
5085;SDS011;4715;51.660;7.082;2023-03-09T10:24:43;25.53;;;14.70;;
5085;SDS011;4715;51.660;7.082;2023-03-09T10:27:06;36.10;;;15.83;;
5085;SDS011;4715;51.660;7.082;2023-03-09T10:29:39;30.07;;;15.23;;
5085;SDS011;4715;51.660;7.082;2023-03-09T10:32:12;31.97;;;15.30;;
5085;SDS011;4715;51.660;7.082;2023-03-09T10:34:42;31.27;;;17.10;;
5085;SDS011;4715;51.660;7.082;2023-03-09T10:37:17;32.47;;;16.80;;
5085;SDS011;4715;51.660;7.082;2023-03-09T10:39:44;33.07;;;17.57;;
5085;SDS011;4715;51.660;7.082;2023-03-09T10:42:13;31.67;;;15.50;;
5085;SDS011;4715;51.660;7.082;2023-03-09T10:44:38;32.57;;;17.13;;
5085;SDS011;4715;51.660;7.082;2023-03-09T10:47:00;33.03;;;16.93;;
5085;SDS011;4715;51.660;7.082;2023-03-09T10:49:24;33.37;;;15.73;;
5085;SDS011;4715;51.660;7.082;2023-03-09T10:51:53;38.77;;;18.63;;
5085;SDS011;4715;51.660;7.082;2023-03-09T10:54:21;32.43;;;17.37;;
5085;SDS011;4715;51.660;7.082;2023-03-09T10:56:47;36.03;;;18.03;;
5085;SDS011;4715;51.660;7.082;2023-03-09T10:59:13;34.53;;;17.50;;
5085;SDS011;4715;51.660;7.082;2023-03-09T11:01:37;35.77;;;19.33;;
5085;SDS011;4715;51.660;7.082;2023-03-09T11:04:00;49.17;;;24.37;;
5085;SDS011;4715;51.660;7.082;2023-03-09T11:06:28;48.40;;;24.00;;
5085;SDS011;4715;51.660;7.082;2023-03-09T11:08:54;52.53;;;23.83;;
5085;SDS011;4715;51.660;7.082;2023-03-09T11:11:25;51.07;;;25.50;;
5085;SDS011;4715;51.660;7.082;2023-03-09T11:13:49;47.47;;;21.03;;
5085;SDS011;4715;51.660;7.082;2023-03-09T11:16:12;41.90;;;23.70;;
5085;SDS011;4715;51.660;7.082;2023-03-09T11:18:36;49.93;;;22.90;;
5085;SDS011;4715;51.660;7.082;2023-03-09T11:21:08;45.00;;;21.03;;
5085;SDS011;4715;51.660;7.082;2023-03-09T11:23:45;47.13;;;22.03;;
5085;SDS011;4715;51.660;7.082;2023-03-09T11:26:12;43.13;;;21.33;;
5085;SDS011;4715;51.660;7.082;2023-03-09T11:31:39;47.30;;;22.23;;
5085;SDS011;4715;51.660;7.082;2023-03-09T11:34:02;38.90;;;18.87;;
5085;SDS011;4715;51.660;7.082;2023-03-09T11:36:29;38.83;;;21.93;;
5085;SDS011;4715;51.660;7.082;2023-03-09T11:38:58;42.10;;;20.17;;
5085;SDS011;4715;51.660;7.082;2023-03-09T11:41:26;36.50;;;19.27;;
5085;SDS011;4715;51.660;7.082;2023-03-09T11:43:53;36.20;;;18.60;;
5085;SDS011;4715;51.660;7.082;2023-03-09T11:46:19;36.03;;;18.90;;
5085;SDS011;4715;51.660;7.082;2023-03-09T11:48:43;37.33;;;19.30;;
5085;SDS011;4715;51.660;7.082;2023-03-09T11:51:11;34.50;;;18.33;;
5085;SDS011;4715;51.660;7.082;2023-03-09T11:53:35;29.43;;;17.77;;
5085;SDS011;4715;51.660;7.082;2023-03-09T11:56:08;31.87;;;17.50;;
5085;SDS011;4715;51.660;7.082;2023-03-09T11:58:40;26.80;;;14.60;;
5085;SDS011;4715;51.660;7.082;2023-03-09T12:01:08;25.33;;;14.40;;
5085;SDS011;4715;51.660;7.082;2023-03-09T12:03:39;25.20;;;14.60;;
5085;SDS011;4715;51.660;7.082;2023-03-09T12:06:11;28.60;;;15.57;;
5085;SDS011;4715;51.660;7.082;2023-03-09T12:08:44;28.80;;;16.67;;
5085;SDS011;4715;51.660;7.082;2023-03-09T12:11:12;35.40;;;18.80;;
5085;SDS011;4715;51.660;7.082;2023-03-09T12:13:40;36.50;;;18.40;;
5085;SDS011;4715;51.660;7.082;2023-03-09T12:16:10;37.37;;;17.90;;
5085;SDS011;4715;51.660;7.082;2023-03-09T12:18:45;32.60;;;17.00;;
5085;SDS011;4715;51.660;7.082;2023-03-09T12:21:16;25.90;;;15.43;;
5085;SDS011;4715;51.660;7.082;2023-03-09T12:23:50;32.30;;;16.77;;
5085;SDS011;4715;51.660;7.082;2023-03-09T12:29:00;32.50;;;17.90;;
5085;SDS011;4715;51.660;7.082;2023-03-09T12:31:40;29.53;;;18.07;;
5085;SDS011;4715;51.660;7.082;2023-03-09T12:34:04;40.60;;;21.37;;
5085;SDS011;4715;51.660;7.082;2023-03-09T12:36:45;35.20;;;18.50;;
5085;SDS011;4715;51.660;7.082;2023-03-09T12:41:57;41.93;;;19.47;;
5085;SDS011;4715;51.660;7.082;2023-03-09T12:47:21;39.60;;;18.90;;
5085;SDS011;4715;51.660;7.082;2023-03-09T12:49:45;39.73;;;18.47;;
5085;SDS011;4715;51.660;7.082;2023-03-09T12:52:15;38.63;;;20.33;;
5085;SDS011;4715;51.660;7.082;2023-03-09T12:54:53;36.70;;;18.53;;
5085;SDS011;4715;51.660;7.082;2023-03-09T12:57:22;33.03;;;17.17;;
5085;SDS011;4715;51.660;7.082;2023-03-09T12:59:44;29.30;;;15.20;;
5085;SDS011;4715;51.660;7.082;2023-03-09T13:02:25;40.43;;;18.17;;
5085;SDS011;4715;51.660;7.082;2023-03-09T13:07:49;26.17;;;14.27;;
5085;SDS011;4715;51.660;7.082;2023-03-09T13:10:18;31.17;;;15.33;;
5085;SDS011;4715;51.660;7.082;2023-03-09T13:12:44;27.90;;;15.00;;
5085;SDS011;4715;51.660;7.082;2023-03-09T13:15:18;24.97;;;14.60;;
5085;SDS011;4715;51.660;7.082;2023-03-09T13:17:42;26.40;;;14.27;;
5085;SDS011;4715;51.660;7.082;2023-03-09T13:20:13;23.23;;;13.10;;
5085;SDS011;4715;51.660;7.082;2023-03-09T13:22:44;27.80;;;14.70;;
5085;SDS011;4715;51.660;7.082;2023-03-09T13:25:27;27.90;;;13.83;;
5085;SDS011;4715;51.660;7.082;2023-03-09T13:28:11;23.43;;;13.07;;
5085;SDS011;4715;51.660;7.082;2023-03-09T13:30:50;24.80;;;12.20;;
5085;SDS011;4715;51.660;7.082;2023-03-09T13:33:15;24.43;;;13.20;;
5085;SDS011;4715;51.660;7.082;2023-03-09T13:35:45;27.43;;;13.17;;
5085;SDS011;4715;51.660;7.082;2023-03-09T13:38:14;26.30;;;13.20;;
5085;SDS011;4715;51.660;7.082;2023-03-09T13:40:46;22.80;;;13.23;;
5085;SDS011;4715;51.660;7.082;2023-03-09T13:43:13;23.53;;;12.87;;
5085;SDS011;4715;51.660;7.082;2023-03-09T13:45:37;18.97;;;11.77;;
5085;SDS011;4715;51.660;7.082;2023-03-09T13:48:00;27.40;;;13.00;;
5085;SDS011;4715;51.660;7.082;2023-03-09T13:50:25;22.93;;;12.00;;
5085;SDS011;4715;51.660;7.082;2023-03-09T13:52:57;28.20;;;13.67;;
5085;SDS011;4715;51.660;7.082;2023-03-09T13:55:19;26.20;;;13.80;;
5085;SDS011;4715;51.660;7.082;2023-03-09T13:57:46;26.27;;;14.07;;
5085;SDS011;4715;51.660;7.082;2023-03-09T14:00:15;34.00;;;15.70;;
5085;SDS011;4715;51.660;7.082;2023-03-09T14:02:38;29.67;;;14.03;;
5085;SDS011;4715;51.660;7.082;2023-03-09T14:05:01;28.93;;;13.97;;
5085;SDS011;4715;51.660;7.082;2023-03-09T14:07:27;32.17;;;15.07;;
5085;SDS011;4715;51.660;7.082;2023-03-09T14:09:53;27.37;;;15.60;;
5085;SDS011;4715;51.660;7.082;2023-03-09T14:12:27;25.93;;;14.60;;
5085;SDS011;4715;51.660;7.082;2023-03-09T14:14:51;35.13;;;14.30;;
5085;SDS011;4715;51.660;7.082;2023-03-09T14:17:16;31.07;;;16.23;;
5085;SDS011;4715;51.660;7.082;2023-03-09T14:19:39;28.90;;;15.00;;
5085;SDS011;4715;51.660;7.082;2023-03-09T14:22:01;30.87;;;15.50;;
5085;SDS011;4715;51.660;7.082;2023-03-09T14:24:29;27.00;;;13.43;;
5085;SDS011;4715;51.660;7.082;2023-03-09T14:26:52;29.53;;;13.70;;
5085;SDS011;4715;51.660;7.082;2023-03-09T14:29:21;28.03;;;14.63;;
5085;SDS011;4715;51.660;7.082;2023-03-09T14:31:48;28.20;;;14.03;;
5085;SDS011;4715;51.660;7.082;2023-03-09T14:34:35;28.07;;;14.77;;
5085;SDS011;4715;51.660;7.082;2023-03-09T14:36:56;31.00;;;14.60;;
5085;SDS011;4715;51.660;7.082;2023-03-09T14:39:21;31.07;;;16.50;;
5085;SDS011;4715;51.660;7.082;2023-03-09T14:41:44;31.40;;;15.10;;
5085;SDS011;4715;51.660;7.082;2023-03-09T14:44:29;36.57;;;16.53;;
5085;SDS011;4715;51.660;7.082;2023-03-09T14:46:52;31.90;;;16.13;;
5085;SDS011;4715;51.660;7.082;2023-03-09T14:49:14;29.10;;;15.73;;
5085;SDS011;4715;51.660;7.082;2023-03-09T14:51:37;23.20;;;12.03;;